Time;durP1;ratioP1;P1;durP2;ratioP2;P2;SDS_P1;SDS_P2;PMS_P1;PMS_P2;Temp;Humidity;BMP_temperature;BMP_pressure;BME280_temperature;BME280_humidity;BME280_pressure;Samples;Min_cycle;Max_cycle;Signal;HPM_P1;HPM_P2
2023/01/09 00:01:51;;;;;;;0.00;0.00;;;;;;;6.50;100.00;98475.31;5029133;28;20581;-73
2023/01/09 00:04:18;;;;;;;0.00;0.00;;;;;;;6.44;100.00;98478.59;5030361;28;20206;-72
2023/01/09 00:06:45;;;;;;;0.00;0.00;;;;;;;6.48;100.00;98457.81;5030321;28;20628;-73
2023/01/09 00:09:10;;;;;;;0.00;0.00;;;;;;;6.61;100.00;98469.50;5032684;28;20191;-72
2023/01/09 00:11:36;;;;;;;5.40;0.47;;;;;;;6.51;100.00;98468.00;5039294;28;20180;-72
2023/01/09 00:14:02;;;;;;;0.23;0.23;;;;;;;6.60;100.00;98467.91;5035132;28;20262;-72
2023/01/09 00:16:27;;;;;;;0.10;0.10;;;;;;;6.61;100.00;98470.28;5034572;28;20832;-72
2023/01/09 00:18:53;;;;;;;0.00;0.00;;;;;;;6.53;100.00;98463.84;5034521;28;20176;-72
2023/01/09 00:21:19;;;;;;;0.00;0.00;;;;;;;6.65;100.00;98462.28;5035083;28;20168;-71
2023/01/09 00:23:44;;;;;;;0.10;0.10;;;;;;;6.72;100.00;98466.03;5033520;28;20286;-72
2023/01/09 00:26:13;;;;;;;0.00;0.00;;;;;;;6.73;100.00;98464.13;5033181;28;20172;-71
2023/01/09 00:28:39;;;;;;;0.00;0.00;;;;;;;6.71;100.00;98450.88;5034303;28;20262;-72
2023/01/09 00:31:06;;;;;;;0.07;0.07;;;;;;;6.86;100.00;98447.53;5034309;28;20255;-72
2023/01/09 00:33:37;;;;;;;0.00;0.00;;;;;;;6.89;100.00;98451.50;5034009;28;20187;-72
2023/01/09 00:36:03;;;;;;;0.43;0.43;;;;;;;6.91;100.00;98443.00;5032955;28;20269;-72
2023/01/09 00:38:28;;;;;;;0.00;0.00;;;;;;;6.95;100.00;98438.53;5034139;28;20460;-72
2023/01/09 00:40:54;;;;;;;0.00;0.00;;;;;;;6.90;100.00;98444.94;5034065;28;20567;-72
2023/01/09 00:43:22;;;;;;;0.00;0.00;;;;;;;7.04;100.00;98431.84;5033979;28;20180;-71
2023/01/09 00:45:47;;;;;;;0.10;0.10;;;;;;;7.14;100.00;98438.75;5032722;28;20180;-72
2023/01/09 00:48:23;;;;;;;0.50;0.50;;;;;;;7.14;100.00;98442.28;5034329;28;20263;-72
2023/01/09 00:50:49;;;;;;;0.00;0.00;;;;;;;7.09;100.00;98430.84;5033940;28;20226;-72
2023/01/09 00:53:17;;;;;;;0.00;0.00;;;;;;;7.10;100.00;98429.72;5033586;28;20179;-72
2023/01/09 00:55:43;;;;;;;0.00;0.00;;;;;;;7.15;100.00;98435.72;5032652;28;20184;-72
2023/01/09 00:58:09;;;;;;;0.00;0.00;;;;;;;7.19;100.00;98427.66;5033801;28;20171;-72
2023/01/09 01:00:34;;;;;;;0.00;0.00;;;;;;;7.13;100.00;98434.47;5033955;28;20310;-72
2023/01/09 01:02:59;;;;;;;0.00;0.00;;;;;;;7.23;100.00;98433.22;5033436;28;20513;-72
2023/01/09 01:08:13;;;;;;;0.10;0.10;;;;;;;7.11;100.00;98420.44;5033916;28;20194;-72
2023/01/09 01:10:38;;;;;;;0.00;0.00;;;;;;;7.09;100.00;98425.41;5033526;28;20633;-72
2023/01/09 01:13:04;;;;;;;0.00;0.00;;;;;;;7.07;100.00;98430.38;5033368;28;20258;-72
2023/01/09 01:15:30;;;;;;;0.00;0.00;;;;;;;7.10;100.00;98418.84;5033396;28;20640;-72
2023/01/09 01:17:56;;;;;;;0.00;0.00;;;;;;;7.12;100.00;98420.09;5033516;28;20229;-72
2023/01/09 01:20:22;;;;;;;0.10;0.10;;;;;;;7.19;100.00;98432.31;5032998;28;20554;-72
2023/01/09 01:22:47;;;;;;;0.00;0.00;;;;;;;7.18;100.00;98428.81;5031834;28;20225;-72
2023/01/09 01:25:15;;;;;;;0.00;0.00;;;;;;;7.10;100.00;98427.00;5033311;28;20180;-72
2023/01/09 01:27:41;;;;;;;0.00;0.00;;;;;;;7.19;100.00;98429.59;5033262;28;20620;-72
2023/01/09 01:30:09;;;;;;;0.00;0.00;;;;;;;7.26;100.00;98433.34;5033113;28;20214;-71
2023/01/09 01:32:34;;;;;;;0.00;0.00;;;;;;;7.19;100.00;98424.97;5032909;28;20241;-72
2023/01/09 01:35:00;;;;;;;0.00;0.00;;;;;;;7.23;100.00;98428.56;5033068;28;20274;-72
2023/01/09 01:37:26;;;;;;;0.00;0.00;;;;;;;7.06;100.00;98416.00;5032829;28;20179;-72
2023/01/09 01:39:52;;;;;;;0.00;0.00;;;;;;;7.09;100.00;98422.72;5033156;28;20612;-72
2023/01/09 01:42:18;;;;;;;0.00;0.00;;;;;;;7.04;100.00;98417.47;5032904;28;20270;-72
2023/01/09 01:45:07;;;;;;;0.00;0.00;;;;;;;6.97;100.00;98415.34;5032674;28;20168;-72
2023/01/09 01:47:36;;;;;;;0.00;0.00;;;;;;;6.87;100.00;98410.34;5033274;28;20560;-72
2023/01/09 01:50:06;;;;;;;0.00;0.00;;;;;;;6.84;100.00;98408.28;5032770;28;20206;-72
2023/01/09 01:52:35;;;;;;;0.00;0.00;;;;;;;6.83;100.00;98407.50;5031202;28;20184;-72
2023/01/09 01:55:03;;;;;;;0.00;0.00;;;;;;;6.82;100.00;98399.69;5032836;28;20175;-72
2023/01/09 01:57:30;;;;;;;0.00;0.00;;;;;;;6.89;100.00;98404.56;5032584;28;20179;-72
2023/01/09 01:59:58;;;;;;;0.00;0.00;;;;;;;6.80;100.00;98404.69;5032539;28;20172;-72
2023/01/09 02:02:29;;;;;;;0.00;0.00;;;;;;;6.76;100.00;98395.59;5031487;28;20179;-72
2023/01/09 02:04:56;;;;;;;0.00;0.00;;;;;;;6.59;100.00;98391.16;5032473;28;20685;-72
2023/01/09 02:07:21;;;;;;;0.00;0.00;;;;;;;6.67;100.00;98384.84;5032814;28;20175;-72
2023/01/09 02:09:47;;;;;;;0.00;0.00;;;;;;;6.62;100.00;98379.63;5032489;28;20211;-72
2023/01/09 02:12:17;;;;;;;0.00;0.00;;;;;;;6.56;100.00;98380.97;5032396;28;20180;-72
2023/01/09 02:14:44;;;;;;;0.00;0.00;;;;;;;6.56;100.00;98368.22;5032317;28;20419;-73
2023/01/09 02:17:23;;;;;;;0.30;0.30;;;;;;;6.54;100.00;98367.75;5032165;28;20543;-72
2023/01/09 02:20:16;;;;;;;0.00;0.00;;;;;;;6.54;100.00;98367.75;5034355;28;20167;-73
2023/01/09 02:23:17;;;;;;;0.00;0.00;;;;;;;6.46;100.00;98365.91;5032022;28;20171;-73
2023/01/09 02:26:06;;;;;;;0.00;0.00;;;;;;;6.58;100.00;98365.16;5032117;28;20183;-72
2023/01/09 02:29:09;;;;;;;0.00;0.00;;;;;;;6.54;100.00;98362.34;5031958;28;20179;-73
2023/01/09 02:31:47;;;;;;;0.00;0.00;;;;;;;6.48;100.00;98355.53;5030226;28;20179;-73
2023/01/09 02:34:40;;;;;;;0.00;0.00;;;;;;;6.46;100.00;98352.34;5032018;28;20671;-73
2023/01/09 02:37:28;;;;;;;0.00;0.00;;;;;;;6.43;100.00;98347.59;5031861;28;20183;-73
2023/01/09 02:40:06;;;;;;;0.00;0.00;;;;;;;6.43;100.00;98344.09;5031815;28;20207;-73
2023/01/09 02:42:33;;;;;;;0.00;0.00;;;;;;;6.41;100.00;98341.72;5031903;28;20238;-72
2023/01/09 02:44:58;;;;;;;0.00;0.00;;;;;;;6.56;100.00;98335.66;5031799;28;20176;-73
2023/01/09 02:47:23;;;;;;;0.00;0.00;;;;;;;6.61;100.00;98345.50;5031751;28;20250;-73
2023/01/09 02:49:52;;;;;;;1.30;1.30;;;;;;;6.53;100.00;98338.25;5031481;28;20290;-73
2023/01/09 02:52:36;;;;;;;0.20;0.03;;;;;;;6.64;100.00;98320.38;5031595;28;20172;-74
2023/01/09 02:55:04;;;;;;;0.00;0.00;;;;;;;6.64;100.00;98323.09;5031519;28;20183;-73
2023/01/09 02:57:37;;;;;;;0.00;0.00;;;;;;;6.72;100.00;98321.44;5030158;28;20214;-73
2023/01/09 03:00:10;;;;;;;0.00;0.00;;;;;;;6.82;100.00;98324.50;5031331;28;20164;-72
2023/01/09 03:03:02;;;;;;;0.00;0.00;;;;;;;6.85;100.00;98312.16;5031227;28;20172;-73
2023/01/09 03:05:34;;;;;;;0.00;0.00;;;;;;;6.71;100.00;98322.56;5031476;28;20305;-73
2023/01/09 03:08:07;;;;;;;0.00;0.00;;;;;;;6.74;100.00;98317.25;5031468;28;20573;-73
2023/01/09 03:10:58;;;;;;;0.00;0.00;;;;;;;6.83;100.00;98312.50;5031221;28;20285;-74
2023/01/09 03:13:27;;;;;;;0.00;0.00;;;;;;;6.76;100.00;98303.34;5030989;28;20169;-73
2023/01/09 03:15:56;;;;;;;0.00;0.00;;;;;;;6.72;100.00;98303.22;5031084;28;20194;-73
2023/01/09 03:18:25;;;;;;;0.00;0.00;;;;;;;6.84;100.00;98291.59;5031148;28;20175;-73
2023/01/09 03:20:52;;;;;;;0.00;0.00;;;;;;;6.92;100.00;98298.81;5031171;28;20473;-74
2023/01/09 03:23:18;;;;;;;0.00;0.00;;;;;;;6.97;100.00;98292.38;5031114;28;20651;-74
2023/01/09 03:25:43;;;;;;;0.00;0.00;;;;;;;6.91;100.00;98289.09;5030945;28;20253;-73
2023/01/09 03:28:23;;;;;;;0.00;0.00;;;;;;;6.91;100.00;98280.94;5031031;28;20176;-73
2023/01/09 03:30:49;;;;;;;0.00;0.00;;;;;;;6.96;100.00;98294.31;5029654;28;20213;-73
2023/01/09 03:33:14;;;;;;;0.00;0.00;;;;;;;6.77;100.00;98284.00;5030714;28;20270;-73
2023/01/09 03:35:39;;;;;;;0.00;0.00;;;;;;;6.71;100.00;98293.50;5030976;28;20187;-73
2023/01/09 03:38:04;;;;;;;0.00;0.00;;;;;;;6.88;100.00;98288.97;5030785;28;20192;-73
2023/01/09 03:40:30;;;;;;;0.00;0.00;;;;;;;6.92;100.00;98287.16;5030935;28;20207;-73
2023/01/09 03:42:55;;;;;;;0.00;0.00;;;;;;;6.94;100.00;98290.31;5030400;28;20402;-73
2023/01/09 03:45:20;;;;;;;0.00;0.00;;;;;;;6.97;100.00;98295.09;5029521;28;20183;-73
2023/01/09 03:47:46;;;;;;;0.00;0.00;;;;;;;6.86;100.00;98289.31;5030688;28;20655;-73
2023/01/09 03:50:11;;;;;;;6.93;3.73;;;;;;;6.98;100.00;98302.91;5030704;28;20258;-74
2023/01/09 03:52:36;;;;;;;0.00;0.00;;;;;;;7.05;100.00;98294.16;5029227;28;20486;-74
2023/01/09 03:55:02;;;;;;;0.00;0.00;;;;;;;7.02;100.00;98295.66;5030621;28;20535;-74
2023/01/09 03:57:27;;;;;;;0.00;0.00;;;;;;;6.95;100.00;98289.22;5029069;28;20261;-73
2023/01/09 03:59:52;;;;;;;0.47;0.47;;;;;;;6.89;100.00;98275.06;5030742;28;20234;-73
2023/01/09 04:02:18;;;;;;;0.70;0.70;;;;;;;7.01;100.00;98275.06;5030547;28;20643;-73
2023/01/09 04:04:43;;;;;;;2.60;2.37;;;;;;;7.08;100.00;98279.91;5029110;28;20180;-73
2023/01/09 04:07:08;;;;;;;0.30;0.30;;;;;;;7.04;100.00;98276.31;5030769;28;20172;-73
2023/01/09 04:09:33;;;;;;;0.00;0.00;;;;;;;7.07;100.00;98272.91;5030814;28;20206;-74
2023/01/09 04:11:59;;;;;;;0.00;0.00;;;;;;;7.11;100.00;98282.75;5030515;28;20238;-74
2023/01/09 04:14:24;;;;;;;0.00;0.00;;;;;;;7.00;100.00;98286.25;5030378;28;20172;-74
2023/01/09 04:16:49;;;;;;;0.10;0.10;;;;;;;7.11;100.00;98285.47;5029073;28;20546;-73
2023/01/09 04:19:14;;;;;;;4.80;4.33;;;;;;;6.99;100.00;98285.47;5030344;28;20180;-73
2023/01/09 04:21:40;;;;;;;0.00;0.00;;;;;;;7.05;100.00;98291.47;5030379;28;20322;-73
2023/01/09 04:24:05;;;;;;;0.00;0.00;;;;;;;6.97;100.00;98286.94;5030135;28;20630;-73
2023/01/09 04:26:31;;;;;;;0.00;0.00;;;;;;;7.03;100.00;98288.28;5030623;28;20188;-74
2023/01/09 04:28:56;;;;;;;0.10;0.10;;;;;;;6.98;100.00;98300.19;5030317;28;20234;-74
2023/01/09 04:31:21;;;;;;;0.10;0.10;;;;;;;6.98;100.00;98286.59;5030363;28;20179;-73
2023/01/09 04:33:47;;;;;;;0.10;0.10;;;;;;;6.94;100.00;98296.53;5030003;28;20183;-73
2023/01/09 04:36:12;;;;;;;0.87;0.50;;;;;;;6.90;100.00;98292.16;5030378;28;20179;-73
2023/01/09 04:38:37;;;;;;;0.33;0.33;;;;;;;6.85;100.00;98301.31;5029221;28;20207;-73
2023/01/09 04:41:03;;;;;;;0.53;0.43;;;;;;;6.81;100.00;98295.78;5030093;28;20180;-73
2023/01/09 04:43:28;;;;;;;0.47;0.30;;;;;;;6.77;100.00;98300.28;5030068;28;20172;-74
2023/01/09 04:45:53;;;;;;;0.10;0.10;;;;;;;6.75;100.00;98309.91;5030114;28;20179;-73
2023/01/09 04:48:19;;;;;;;0.20;0.20;;;;;;;6.73;100.00;98310.22;5030464;28;20272;-73
2023/01/09 04:50:44;;;;;;;0.73;0.73;;;;;;;6.71;100.00;98309.00;5030018;28;20214;-73
2023/01/09 04:53:09;;;;;;;0.37;0.37;;;;;;;6.68;100.00;98302.31;5030112;28;20180;-73
2023/01/09 04:55:34;;;;;;;0.50;0.50;;;;;;;6.65;100.00;98308.41;5031841;28;20180;-73
2023/01/09 04:58:00;;;;;;;0.03;0.03;;;;;;;6.64;100.00;98308.75;5033776;28;20180;-73
2023/01/09 05:00:25;;;;;;;0.40;0.10;;;;;;;6.61;100.00;98323.78;5033933;28;20184;-73
2023/01/09 05:02:50;;;;;;;0.00;0.00;;;;;;;6.59;100.00;98333.41;5033448;28;20650;-73
2023/01/09 05:05:16;;;;;;;0.10;0.10;;;;;;;6.52;100.00;98328.53;5034032;28;20218;-72
2023/01/09 05:07:41;;;;;;;0.00;0.00;;;;;;;6.50;100.00;98331.56;5033595;28;20184;-73
2023/01/09 05:10:08;;;;;;;0.23;0.17;;;;;;;6.47;100.00;98334.16;5033456;28;20213;-73
2023/01/09 05:12:35;;;;;;;0.20;0.20;;;;;;;6.44;100.00;98335.63;5031768;28;20176;-73
2023/01/09 05:15:00;;;;;;;0.00;0.00;;;;;;;6.43;100.00;98334.03;5033452;28;20207;-73
2023/01/09 05:17:26;;;;;;;0.00;0.00;;;;;;;6.43;100.00;98335.97;5033357;28;20184;-73
2023/01/09 05:19:51;;;;;;;0.00;0.00;;;;;;;6.46;100.00;98343.44;5033791;28;20180;-73
2023/01/09 05:22:16;;;;;;;0.10;0.10;;;;;;;6.50;100.00;98344.34;5031860;28;20171;-73
2023/01/09 05:24:41;;;;;;;0.13;0.13;;;;;;;6.46;100.00;98338.78;5033015;28;20659;-73
2023/01/09 05:27:07;;;;;;;0.03;0.03;;;;;;;6.46;100.00;98343.44;5033196;28;20175;-73
2023/01/09 05:29:32;;;;;;;0.00;0.00;;;;;;;6.48;100.00;98344.66;5031815;28;20254;-73
2023/01/09 05:31:57;;;;;;;0.00;0.00;;;;;;;6.47;100.00;98358.56;5033051;28;20579;-73
2023/01/09 05:34:23;;;;;;;0.13;0.13;;;;;;;6.47;100.00;98355.84;5032899;28;20643;-73
2023/01/09 05:36:48;;;;;;;0.20;0.20;;;;;;;6.47;100.00;98355.84;5032919;28;20175;-73
2023/01/09 05:39:14;;;;;;;0.10;0.10;;;;;;;6.49;100.00;98367.94;5031551;28;20282;-73
2023/01/09 05:41:39;;;;;;;0.10;0.00;;;;;;;6.51;100.00;98379.28;5032912;28;20215;-74
2023/01/09 05:44:04;;;;;;;0.40;0.40;;;;;;;6.46;100.00;98371.34;5032998;28;20176;-73
2023/01/09 05:46:30;;;;;;;0.30;0.20;;;;;;;6.46;100.00;98382.19;5032799;28;20172;-74
2023/01/09 05:48:56;;;;;;;0.30;0.30;;;;;;;6.45;100.00;98387.94;5032665;28;20172;-73
2023/01/09 05:51:21;;;;;;;0.37;0.37;;;;;;;6.44;100.00;98381.72;5032831;28;20274;-73
2023/01/09 05:53:47;;;;;;;0.20;0.20;;;;;;;6.46;100.00;98384.09;5032227;28;20172;-73
2023/01/09 05:56:12;;;;;;;0.40;0.37;;;;;;;6.45;100.00;98394.16;5032625;28;20661;-73
2023/01/09 05:58:38;;;;;;;0.50;0.50;;;;;;;6.46;100.00;98394.97;5032522;28;20639;-73
2023/01/09 06:01:03;;;;;;;0.57;0.57;;;;;;;6.45;100.00;98399.59;5031256;28;20180;-72
2023/01/09 06:03:29;;;;;;;0.50;0.50;;;;;;;6.44;100.00;98389.88;5032186;28;20598;-73
2023/01/09 06:05:54;;;;;;;0.37;0.37;;;;;;;6.44;100.00;98392.59;5031846;28;20176;-73
2023/01/09 06:08:19;;;;;;;0.27;0.27;;;;;;;6.45;100.00;98391.47;5031761;28;20172;-73
2023/01/09 06:10:46;;;;;;;1.23;0.97;;;;;;;6.46;100.00;98395.75;5032276;28;20219;-73
2023/01/09 06:13:11;;;;;;;1.40;1.30;;;;;;;6.45;100.00;98401.50;5032173;28;20179;-73
2023/01/09 06:15:36;;;;;;;0.57;0.53;;;;;;;6.46;100.00;98409.31;5030911;28;20176;-73
2023/01/09 06:18:03;;;;;;;1.17;1.17;;;;;;;6.46;100.00;98425.59;5032262;28;20573;-73
2023/01/09 06:20:28;;;;;;;1.07;1.07;;;;;;;6.46;100.00;98419.38;5032008;28;20187;-73
2023/01/09 06:22:54;;;;;;;0.33;0.33;;;;;;;6.46;100.00;98430.22;5032102;28;20175;-74
2023/01/09 06:25:19;;;;;;;9.73;1.17;;;;;;;6.44;100.00;98438.69;5031985;28;20180;-73
2023/01/09 06:27:44;;;;;;;1.60;1.50;;;;;;;6.42;100.00;98437.44;5032040;28;20599;-73
2023/01/09 06:30:10;;;;;;;0.93;0.93;;;;;;;6.42;100.00;98445.59;5030638;28;20261;-73
2023/01/09 06:32:35;;;;;;;2.57;1.40;;;;;;;6.38;100.00;98448.19;5031634;28;20533;-73
2023/01/09 06:35:01;;;;;;;2.77;1.43;;;;;;;6.33;100.00;98453.78;5031890;28;20249;-72
2023/01/09 06:37:27;;;;;;;1.80;1.67;;;;;;;6.30;100.00;98456.38;5030396;28;20186;-73
2023/01/09 06:39:53;;;;;;;1.73;1.43;;;;;;;6.23;100.00;98463.13;5031690;28;20164;-73
2023/01/09 06:42:19;;;;;;;1.30;1.30;;;;;;;6.18;100.00;98459.81;5031688;28;20689;-73
2023/01/09 06:44:44;;;;;;;1.83;1.73;;;;;;;6.14;100.00;98462.41;5031713;28;20255;-73
2023/01/09 06:47:09;;;;;;;1.23;1.13;;;;;;;6.08;100.00;98449.38;5031535;28;20279;-73
2023/01/09 06:49:34;;;;;;;1.33;1.23;;;;;;;6.06;100.00;98465.16;5031606;28;20207;-73
2023/01/09 06:52:04;;;;;;;1.27;1.17;;;;;;;5.99;100.00;98462.19;5031324;28;20553;-73
2023/01/09 06:54:29;;;;;;;1.73;1.10;;;;;;;5.95;100.00;98470.19;5031431;28;20230;-73
2023/01/09 06:56:54;;;;;;;1.77;1.67;;;;;;;5.94;100.00;98474.81;5031550;28;20180;-73
2023/01/09 06:59:20;;;;;;;2.13;1.93;;;;;;;5.91;100.00;98483.59;5031317;28;20176;-73
2023/01/09 07:01:45;;;;;;;5.10;2.23;;;;;;;5.87;100.00;98479.13;5031368;28;20885;-72
2023/01/09 07:04:10;;;;;;;2.07;1.87;;;;;;;5.89;100.00;98488.53;5031069;28;20691;-72
2023/01/09 07:06:36;;;;;;;3.43;1.20;;;;;;;5.86;100.00;98494.59;5031172;28;20256;-73
2023/01/09 07:09:01;;;;;;;1.27;1.17;;;;;;;5.76;100.00;98496.88;5031131;28;20207;-73
2023/01/09 07:11:27;;;;;;;3.70;2.73;;;;;;;5.73;100.00;98509.19;5029955;28;20172;-73
2023/01/09 07:13:52;;;;;;;2.47;2.27;;;;;;;5.71;100.00;98508.72;5031016;28;20183;-72
2023/01/09 07:16:17;;;;;;;1.60;1.53;;;;;;;5.65;100.00;98512.75;5029568;28;20299;-72
2023/01/09 07:18:42;;;;;;;2.60;2.40;;;;;;;5.62;100.00;98513.38;5030673;28;20203;-73
2023/01/09 07:21:08;;;;;;;4.03;2.17;;;;;;;5.63;100.00;98533.91;5030987;28;20694;-72
2023/01/09 07:23:33;;;;;;;3.37;3.07;;;;;;;5.61;100.00;98526.13;5030633;28;20179;-72
2023/01/09 07:25:59;;;;;;;2.47;2.27;;;;;;;5.61;100.00;98541.56;5031085;28;20172;-73
2023/01/09 07:28:25;;;;;;;1.67;1.53;;;;;;;5.55;100.00;98537.47;5030905;28;20621;-72
2023/01/09 07:30:50;;;;;;;5.07;2.37;;;;;;;5.57;100.00;98535.22;5030906;28;20303;-73
2023/01/09 07:33:16;;;;;;;9.23;2.17;;;;;;;5.57;100.00;98538.72;5030399;28;20184;-73
2023/01/09 07:35:41;;;;;;;3.47;3.10;;;;;;;5.54;100.00;98546.72;5030856;28;20237;-73
2023/01/09 07:38:07;;;;;;;4.97;2.27;;;;;;;5.52;100.00;98540.84;5030649;28;20184;-73
2023/01/09 07:40:33;;;;;;;2.63;2.10;;;;;;;5.46;100.00;98542.13;5030629;28;20593;-73
2023/01/09 07:42:58;;;;;;;3.00;2.80;;;;;;;5.41;100.00;98548.50;5030903;28;20183;-72
2023/01/09 07:45:24;;;;;;;4.03;2.97;;;;;;;5.35;100.00;98542.50;5032492;28;20180;-72
2023/01/09 07:47:51;;;;;;;3.10;0.87;;;;;;;5.31;100.00;98546.16;5037503;28;20183;-72
2023/01/09 07:50:16;;;;;;;3.03;2.70;;;;;;;5.28;100.00;98550.31;5031297;28;20206;-72
2023/01/09 07:52:43;;;;;;;1.23;1.10;;;;;;;5.28;100.00;98553.00;5030660;28;20832;-72
2023/01/09 07:55:09;;;;;;;2.30;2.10;;;;;;;5.33;100.00;98552.03;5030905;28;20262;-71
2023/01/09 07:57:34;;;;;;;1.17;1.17;;;;;;;5.30;100.00;98564.31;5031176;28;20264;-72
2023/01/09 08:00:02;;;;;;;4.33;3.93;;;;;;;5.28;100.00;98571.97;5031515;28;20217;-72
2023/01/09 08:02:27;;;;;;;9.67;5.27;;;;;;;5.26;100.00;98570.69;5030570;28;20167;-71
2023/01/09 08:04:52;;;;;;;7.53;3.17;;;;;;;5.25;100.00;98583.44;5029443;28;20186;-72
2023/01/09 08:07:18;;;;;;;7.90;3.67;;;;;;;5.27;100.00;98581.19;5030715;28;20180;-72
2023/01/09 08:09:43;;;;;;;8.17;2.77;;;;;;;5.29;100.00;98581.66;5030384;28;20200;-72
2023/01/09 08:12:08;;;;;;;2.73;2.53;;;;;;;5.32;100.00;98581.03;5029437;28;20270;-72
2023/01/09 08:14:34;;;;;;;2.90;2.70;;;;;;;5.36;100.00;98584.69;5030459;28;20233;-72
2023/01/09 08:17:01;;;;;;;2.87;2.10;;;;;;;5.40;100.00;98584.84;5030310;28;20168;-71
2023/01/09 08:19:26;;;;;;;7.90;3.40;;;;;;;5.41;100.00;98591.84;5030434;28;20508;-71
2023/01/09 08:21:51;;;;;;;2.20;2.10;;;;;;;5.47;100.00;98592.44;5030330;28;20198;-71
2023/01/09 08:24:17;;;;;;;1.80;1.70;;;;;;;5.50;100.00;98599.94;5030069;28;20172;-71
2023/01/09 08:26:42;;;;;;;1.73;1.63;;;;;;;5.52;100.00;98598.50;5030490;28;20574;-72
2023/01/09 08:29:07;;;;;;;6.37;2.13;;;;;;;5.61;100.00;98607.38;5030355;28;20192;-71
2023/01/09 08:31:33;;;;;;;2.87;0.97;;;;;;;5.69;100.00;98605.78;5033712;28;20180;-72
2023/01/09 08:33:58;;;;;;;1.13;1.03;;;;;;;5.75;100.00;98604.47;5033901;28;20230;-73
2023/01/09 08:36:23;;;;;;;0.60;0.60;;;;;;;5.79;100.00;98610.84;5034054;28;20591;-72
2023/01/09 08:38:49;;;;;;;1.03;0.47;;;;;;;5.82;100.00;98609.41;5037880;28;20184;-71
2023/01/09 08:49:26;;;;;;;0.33;0.33;;;;;;;6.07;100.00;98626.69;5053799;28;20198;-73
2023/01/09 08:51:51;;;;;;;2.17;1.17;;;;;;;6.14;100.00;98616.94;5053617;28;20179;-72
2023/01/09 08:54:17;;;;;;;1.90;0.90;;;;;;;6.20;100.00;98628.38;5053355;28;20264;-72
2023/01/09 08:56:42;;;;;;;8.93;1.30;;;;;;;6.28;100.00;98621.31;5053555;28;20682;-72
2023/01/09 08:59:09;;;;;;;4.33;1.10;;;;;;;6.31;100.00;98634.22;5053576;28;20175;-72
2023/01/09 09:01:35;;;;;;;2.23;0.70;;;;;;;6.33;100.00;98640.91;5053311;28;20480;-72
2023/01/09 09:04:00;;;;;;;0.70;0.70;;;;;;;6.36;100.00;98642.16;5053161;28;20635;-72
2023/01/09 09:06:26;;;;;;;0.10;0.10;;;;;;;6.41;99.13;98636.56;5053295;28;20207;-72
2023/01/09 09:08:51;;;;;;;0.67;0.67;;;;;;;6.41;98.92;98631.94;5053280;28;20569;-72
2023/01/09 09:11:16;;;;;;;0.30;0.30;;;;;;;6.43;98.17;98642.47;5053181;28;20181;-72
2023/01/09 09:13:41;;;;;;;0.10;0.10;;;;;;;6.44;97.59;98625.84;5053025;28;20237;-72
2023/01/09 09:16:07;;;;;;;0.00;0.00;;;;;;;6.49;97.43;98628.38;5053167;28;20179;-72
2023/01/09 09:18:32;;;;;;;4.83;0.53;;;;;;;6.52;96.17;98632.38;5051807;28;20693;-71
2023/01/09 09:20:58;;;;;;;1.50;0.50;;;;;;;6.54;95.50;98640.97;5053542;28;20282;-72
2023/01/09 09:23:23;;;;;;;0.10;0.10;;;;;;;6.59;94.24;98640.75;5052771;28;20634;-72
2023/01/09 09:25:48;;;;;;;1.77;0.90;;;;;;;6.62;93.44;98648.25;5053384;28;20644;-72
2023/01/09 09:28:14;;;;;;;2.33;1.23;;;;;;;6.64;92.83;98640.56;5052822;28;20198;-72
2023/01/09 09:30:39;;;;;;;0.00;0.00;;;;;;;6.68;92.46;98640.72;5052990;28;20211;-72
2023/01/09 09:33:04;;;;;;;0.20;0.20;;;;;;;6.78;93.12;98645.72;5052891;28;20171;-72
2023/01/09 09:35:32;;;;;;;0.00;0.00;;;;;;;6.83;93.11;98657.22;5052745;28;20547;-72
2023/01/09 09:38:00;;;;;;;0.20;0.20;;;;;;;6.96;93.17;98652.66;5051223;28;20233;-72
2023/01/09 09:41:03;;;;;;;0.10;0.10;;;;;;;7.03;91.82;98650.19;5052474;28;20217;-71
2023/01/09 09:46:38;;;;;;;0.10;0.10;;;;;;;7.04;90.86;98650.97;5052804;28;20184;-72
2023/01/09 09:49:20;;;;;;;0.00;0.00;;;;;;;7.03;90.70;98657.53;5052887;28;20178;-72
2023/01/09 09:52:08;;;;;;;0.30;0.30;;;;;;;7.12;91.74;98653.63;5052689;28;20560;-72
2023/01/09 09:54:48;;;;;;;0.27;0.23;;;;;;;7.10;90.73;98661.31;5052282;28;20168;-72
2023/01/09 09:57:18;;;;;;;0.10;0.10;;;;;;;7.10;91.47;98658.59;5052428;28;20179;-73
2023/01/09 09:59:50;;;;;;;0.10;0.10;;;;;;;7.09;91.22;98672.50;5052621;28;20274;-73
2023/01/09 10:02:37;;;;;;;0.00;0.00;;;;;;;7.14;91.54;98669.59;5052169;28;20233;-75
2023/01/09 10:05:14;;;;;;;0.60;0.40;;;;;;;7.14;90.74;98675.81;5052222;28;20604;-75
2023/01/09 10:07:46;;;;;;;0.00;0.00;;;;;;;7.18;90.96;98675.94;5052143;28;20171;-76
2023/01/09 10:10:37;;;;;;;0.13;0.13;;;;;;;7.27;92.08;98676.66;5050782;28;20217;-78
2023/01/09 10:14:03;;;;;;;0.20;0.10;;;;;;;7.27;92.70;98678.59;5045669;28;20198;-73
2023/01/09 10:16:06;;;;;;;0.10;0.10;;;;;;;7.29;91.55;98671.69;5051689;28;20221;-72
2023/01/09 10:18:48;;;;;;;0.30;0.30;;;;;;;7.22;90.53;98667.91;5051845;28;20171;-72
2023/01/09 10:21:43;;;;;;;0.63;0.40;;;;;;;7.27;90.62;98675.88;5051912;28;20171;-71
2023/01/09 10:24:49;;;;;;;0.50;0.50;;;;;;;7.26;89.85;98664.22;5051704;28;20202;-72
2023/01/09 10:27:52;;;;;;;0.40;0.40;;;;;;;7.30;90.54;98653.47;5050793;28;20194;-72
2023/01/09 10:30:26;;;;;;;0.00;0.00;;;;;;;7.33;89.19;98658.22;5049620;28;20252;-72
2023/01/09 10:33:29;;;;;;;2.50;0.57;;;;;;;7.32;88.88;98651.22;5030236;28;20256;-71
2023/01/09 10:36:19;;;;;;;0.00;0.00;;;;;;;7.34;87.81;98640.81;5031495;28;20257;-73
2023/01/09 10:38:47;;;;;;;0.00;0.00;;;;;;;7.34;87.05;98643.53;5031742;28;20175;-72
2023/01/09 10:41:35;;;;;;;0.00;0.00;;;;;;;7.30;87.08;98635.25;5031582;28;20180;-72
2023/01/09 10:44:35;;;;;;;0.73;0.30;;;;;;;7.44;88.02;98630.31;5031146;28;20199;-72
2023/01/09 10:47:07;;;;;;;0.00;0.00;;;;;;;7.56;86.18;98635.00;5031180;28;20176;-72
2023/01/09 10:49:33;;;;;;;0.97;0.20;;;;;;;7.60;85.54;98633.19;5030973;28;20215;-72
2023/01/09 10:52:08;;;;;;;0.00;0.00;;;;;;;7.55;86.79;98627.19;5031002;28;20199;-72
2023/01/09 10:54:36;;;;;;;0.23;0.23;;;;;;;7.63;86.36;98627.06;5030883;28;20281;-73
2023/01/09 10:57:16;;;;;;;0.40;0.40;;;;;;;7.71;85.29;98628.91;5031426;28;20175;-73
2023/01/09 10:59:41;;;;;;;0.00;0.00;;;;;;;7.66;84.28;98628.31;5031463;28;20175;-73
2023/01/09 11:02:26;;;;;;;0.30;0.30;;;;;;;7.69;85.50;98623.03;5030986;28;20655;-73
2023/01/09 11:04:51;;;;;;;0.00;0.00;;;;;;;7.73;84.70;98628.56;5031108;28;20262;-72
2023/01/09 11:07:24;;;;;;;0.00;0.00;;;;;;;7.73;85.18;98623.94;5030970;28;20275;-72
2023/01/09 11:10:04;;;;;;;0.20;0.20;;;;;;;7.85;84.76;98623.16;5031066;28;20495;-72
2023/01/09 11:12:34;;;;;;;24.87;0.43;;;;;;;7.87;85.22;98623.63;5031270;28;20187;-72
2023/01/09 11:15:14;;;;;;;11.43;1.10;;;;;;;7.92;85.36;98625.31;5031291;28;20176;-72
2023/01/09 11:17:40;;;;;;;0.53;0.53;;;;;;;7.85;85.19;98628.59;5030793;28;20206;-72
2023/01/09 11:20:14;;;;;;;0.10;0.10;;;;;;;7.74;85.17;98627.44;5031046;28;20207;-72
2023/01/09 11:22:47;;;;;;;0.00;0.00;;;;;;;7.74;85.73;98638.31;5029605;28;20567;-72
2023/01/09 11:25:14;;;;;;;0.20;0.20;;;;;;;7.80;86.16;98638.88;5030708;28;20186;-72
2023/01/09 11:27:40;;;;;;;0.00;0.00;;;;;;;7.72;85.14;98633.22;5030607;28;20180;-73
2023/01/09 11:30:11;;;;;;;0.40;0.40;;;;;;;7.77;85.77;98637.63;5029301;28;20211;-72
2023/01/09 11:32:37;;;;;;;0.00;0.00;;;;;;;7.81;85.20;98644.00;5030463;28;20171;-72
2023/01/09 11:35:15;;;;;;;0.00;0.00;;;;;;;7.77;85.50;98632.19;5030786;28;20190;-72
2023/01/09 11:37:41;;;;;;;0.67;0.67;;;;;;;7.70;85.03;98627.34;5030295;28;20192;-72
2023/01/09 11:40:16;;;;;;;0.10;0.10;;;;;;;7.84;85.90;98642.53;5030752;28;20514;-72
2023/01/09 11:43:00;;;;;;;0.13;0.13;;;;;;;7.82;85.38;98645.59;5028883;28;20576;-72
2023/01/09 11:45:30;;;;;;;0.00;0.00;;;;;;;7.87;84.56;98636.41;5030620;28;20241;-73
2023/01/09 11:47:57;;;;;;;0.00;0.00;;;;;;;7.82;84.89;98642.88;5030161;28;20685;-72
2023/01/09 11:50:27;;;;;;;0.97;0.97;;;;;;;7.85;84.51;98649.56;5029118;28;20219;-72
2023/01/09 11:53:13;;;;;;;0.00;0.00;;;;;;;7.90;84.49;98650.13;5030371;28;20200;-72
2023/01/09 11:55:39;;;;;;;0.00;0.00;;;;;;;7.94;85.38;98652.97;5030538;28;20206;-72
2023/01/09 11:58:07;;;;;;;0.10;0.10;;;;;;;7.99;85.21;98659.00;5030430;28;20195;-72